sensor_id;sensor_type;location;lat;lon;timestamp;temperature;humidity
16999;DHT22;10211;49.476;11.010;2023-10-08T00:01:38;16.50;99.90
16999;DHT22;10211;49.476;11.010;2023-10-08T00:04:08;17.00;99.90
16999;DHT22;10211;49.476;11.010;2023-10-08T00:06:35;16.50;99.90
16999;DHT22;10211;49.476;11.010;2023-10-08T00:09:05;16.50;99.90
16999;DHT22;10211;49.476;11.010;2023-10-08T00:11:37;16.50;99.90
16999;DHT22;10211;49.476;11.010;2023-10-08T00:14:05;16.40;99.90
16999;DHT22;10211;49.476;11.010;2023-10-08T00:16:36;16.50;99.90
16999;DHT22;10211;49.476;11.010;2023-10-08T00:19:05;16.40;99.90
16999;DHT22;10211;49.476;11.010;2023-10-08T00:21:35;16.50;99.90
16999;DHT22;10211;49.476;11.010;2023-10-08T00:24:05;16.50;99.90
16999;DHT22;10211;49.476;11.010;2023-10-08T00:26:33;16.50;99.90
16999;DHT22;10211;49.476;11.010;2023-10-08T00:29:06;16.50;99.90
16999;DHT22;10211;49.476;11.010;2023-10-08T00:31:41;16.40;99.90
16999;DHT22;10211;49.476;11.010;2023-10-08T00:34:10;16.40;99.90
16999;DHT22;10211;49.476;11.010;2023-10-08T00:36:40;16.40;99.90
16999;DHT22;10211;49.476;11.010;2023-10-08T00:39:10;16.30;99.90
16999;DHT22;10211;49.476;11.010;2023-10-08T00:41:41;16.30;99.90
16999;DHT22;10211;49.476;11.010;2023-10-08T00:44:08;16.20;99.90
16999;DHT22;10211;49.476;11.010;2023-10-08T00:46:40;16.20;99.90
16999;DHT22;10211;49.476;11.010;2023-10-08T00:49:14;16.20;99.90
16999;DHT22;10211;49.476;11.010;2023-10-08T00:51:51;16.20;99.90
16999;DHT22;10211;49.476;11.010;2023-10-08T00:54:30;16.20;99.90
16999;DHT22;10211;49.476;11.010;2023-10-08T00:57:00;16.10;99.90
16999;DHT22;10211;49.476;11.010;2023-10-08T00:59:32;16.10;99.90
16999;DHT22;10211;49.476;11.010;2023-10-08T01:02:07;16.10;99.90
16999;DHT22;10211;49.476;11.010;2023-10-08T01:04:40;16.10;99.90
16999;DHT22;10211;49.476;11.010;2023-10-08T01:07:11;16.00;99.90
16999;DHT22;10211;49.476;11.010;2023-10-08T01:09:41;16.00;99.90
16999;DHT22;10211;49.476;11.010;2023-10-08T01:12:13;15.60;99.90
16999;DHT22;10211;49.476;11.010;2023-10-08T01:14:41;16.00;99.90
16999;DHT22;10211;49.476;11.010;2023-10-08T01:17:09;16.10;99.90
16999;DHT22;10211;49.476;11.010;2023-10-08T01:19:39;16.40;99.90
16999;DHT22;10211;49.476;11.010;2023-10-08T01:22:09;15.90;99.90
16999;DHT22;10211;49.476;11.010;2023-10-08T01:24:42;16.20;99.90
16999;DHT22;10211;49.476;11.010;2023-10-08T01:27:09;16.20;99.90
16999;DHT22;10211;49.476;11.010;2023-10-08T01:29:39;15.70;99.90
16999;DHT22;10211;49.476;11.010;2023-10-08T01:32:09;15.70;99.90
16999;DHT22;10211;49.476;11.010;2023-10-08T01:34:36;15.50;99.90
16999;DHT22;10211;49.476;11.010;2023-10-08T01:37:04;15.50;99.90
16999;DHT22;10211;49.476;11.010;2023-10-08T01:39:37;15.40;99.90
16999;DHT22;10211;49.476;11.010;2023-10-08T01:42:05;15.60;99.90
16999;DHT22;10211;49.476;11.010;2023-10-08T01:44:33;15.30;99.90
16999;DHT22;10211;49.476;11.010;2023-10-08T01:47:00;15.30;99.90
16999;DHT22;10211;49.476;11.010;2023-10-08T01:49:30;15.30;99.90
16999;DHT22;10211;49.476;11.010;2023-10-08T01:51:59;16.10;99.90
16999;DHT22;10211;49.476;11.010;2023-10-08T01:54:32;15.40;99.90
16999;DHT22;10211;49.476;11.010;2023-10-08T01:57:03;15.50;99.90
16999;DHT22;10211;49.476;11.010;2023-10-08T01:59:32;15.50;99.90
16999;DHT22;10211;49.476;11.010;2023-10-08T02:02:13;15.60;99.90
16999;DHT22;10211;49.476;11.010;2023-10-08T02:04:41;15.60;99.90
16999;DHT22;10211;49.476;11.010;2023-10-08T02:07:09;15.70;99.90
16999;DHT22;10211;49.476;11.010;2023-10-08T02:09:38;15.80;99.90
16999;DHT22;10211;49.476;11.010;2023-10-08T02:12:06;15.90;99.90
16999;DHT22;10211;49.476;11.010;2023-10-08T02:14:34;15.90;99.90
16999;DHT22;10211;49.476;11.010;2023-10-08T02:17:02;15.90;99.90
16999;DHT22;10211;49.476;11.010;2023-10-08T02:19:31;16.10;99.90
16999;DHT22;10211;49.476;11.010;2023-10-08T02:22:00;15.90;99.90
16999;DHT22;10211;49.476;11.010;2023-10-08T02:24:31;16.00;99.90
16999;DHT22;10211;49.476;11.010;2023-10-08T02:26:58;16.00;99.90
16999;DHT22;10211;49.476;11.010;2023-10-08T02:29:29;16.10;99.90
16999;DHT22;10211;49.476;11.010;2023-10-08T02:31:56;16.10;99.90
16999;DHT22;10211;49.476;11.010;2023-10-08T02:34:24;16.10;99.90
16999;DHT22;10211;49.476;11.010;2023-10-08T02:36:52;16.20;99.90
16999;DHT22;10211;49.476;11.010;2023-10-08T02:39:20;16.20;99.90
16999;DHT22;10211;49.476;11.010;2023-10-08T02:41:51;16.20;99.90
16999;DHT22;10211;49.476;11.010;2023-10-08T02:44:18;16.20;99.90
16999;DHT22;10211;49.476;11.010;2023-10-08T02:46:49;16.20;99.90
16999;DHT22;10211;49.476;11.010;2023-10-08T02:49:17;16.20;99.90
16999;DHT22;10211;49.476;11.010;2023-10-08T02:51:46;16.20;99.90
16999;DHT22;10211;49.476;11.010;2023-10-08T02:54:16;16.20;99.90
16999;DHT22;10211;49.476;11.010;2023-10-08T02:56:44;16.20;99.90
16999;DHT22;10211;49.476;11.010;2023-10-08T02:59:12;16.10;99.90
16999;DHT22;10211;49.476;11.010;2023-10-08T03:01:39;16.40;99.90
16999;DHT22;10211;49.476;11.010;2023-10-08T03:04:08;16.10;99.90
16999;DHT22;10211;49.476;11.010;2023-10-08T03:06:43;16.00;99.90
16999;DHT22;10211;49.476;11.010;2023-10-08T03:09:11;16.00;99.90
16999;DHT22;10211;49.476;11.010;2023-10-08T03:11:49;15.90;99.90
16999;DHT22;10211;49.476;11.010;2023-10-08T03:14:17;15.90;99.90
16999;DHT22;10211;49.476;11.010;2023-10-08T03:16:49;16.00;99.90
16999;DHT22;10211;49.476;11.010;2023-10-08T03:19:18;15.90;99.90
16999;DHT22;10211;49.476;11.010;2023-10-08T03:21:46;15.90;99.90
16999;DHT22;10211;49.476;11.010;2023-10-08T03:24:20;15.90;99.90
16999;DHT22;10211;49.476;11.010;2023-10-08T03:27:03;15.90;99.90
16999;DHT22;10211;49.476;11.010;2023-10-08T03:29:38;16.00;99.90
16999;DHT22;10211;49.476;11.010;2023-10-08T03:32:07;15.90;99.90
16999;DHT22;10211;49.476;11.010;2023-10-08T03:34:40;15.90;99.90
16999;DHT22;10211;49.476;11.010;2023-10-08T03:37:09;16.00;99.90
16999;DHT22;10211;49.476;11.010;2023-10-08T03:39:36;16.00;99.90
16999;DHT22;10211;49.476;11.010;2023-10-08T03:42:31;16.00;99.90
16999;DHT22;10211;49.476;11.010;2023-10-08T03:45:06;16.00;99.90
16999;DHT22;10211;49.476;11.010;2023-10-08T03:47:37;15.90;99.90
16999;DHT22;10211;49.476;11.010;2023-10-08T03:50:06;15.90;99.90
16999;DHT22;10211;49.476;11.010;2023-10-08T03:52:33;15.90;99.90
16999;DHT22;10211;49.476;11.010;2023-10-08T03:55:03;15.90;99.90
16999;DHT22;10211;49.476;11.010;2023-10-08T03:57:40;15.90;99.90
16999;DHT22;10211;49.476;11.010;2023-10-08T04:00:14;16.00;99.90
16999;DHT22;10211;49.476;11.010;2023-10-08T04:02:44;15.90;99.90
16999;DHT22;10211;49.476;11.010;2023-10-08T04:05:20;15.90;99.90
16999;DHT22;10211;49.476;11.010;2023-10-08T04:07:49;15.90;99.90
16999;DHT22;10211;49.476;11.010;2023-10-08T04:10:42;15.80;99.90
16999;DHT22;10211;49.476;11.010;2023-10-08T04:13:28;15.80;99.90
16999;DHT22;10211;49.476;11.010;2023-10-08T04:15:56;15.70;99.90
16999;DHT22;10211;49.476;11.010;2023-10-08T04:18:23;15.80;99.90
16999;DHT22;10211;49.476;11.010;2023-10-08T04:20:50;15.80;99.90
16999;DHT22;10211;49.476;11.010;2023-10-08T04:23:30;15.70;99.90
16999;DHT22;10211;49.476;11.010;2023-10-08T04:25:57;15.60;99.90
16999;DHT22;10211;49.476;11.010;2023-10-08T04:28:24;15.50;99.90
16999;DHT22;10211;49.476;11.010;2023-10-08T04:30:55;15.50;99.90
16999;DHT22;10211;49.476;11.010;2023-10-08T04:33:27;15.40;99.90
16999;DHT22;10211;49.476;11.010;2023-10-08T04:35:59;15.30;99.90
16999;DHT22;10211;49.476;11.010;2023-10-08T04:38:28;15.50;99.90
16999;DHT22;10211;49.476;11.010;2023-10-08T04:40:59;15.20;99.90
16999;DHT22;10211;49.476;11.010;2023-10-08T04:43:27;15.30;99.90
16999;DHT22;10211;49.476;11.010;2023-10-08T04:45:58;15.30;99.90
16999;DHT22;10211;49.476;11.010;2023-10-08T04:48:28;15.30;99.90
16999;DHT22;10211;49.476;11.010;2023-10-08T04:50:58;15.30;99.90
16999;DHT22;10211;49.476;11.010;2023-10-08T04:53:26;15.30;99.90
16999;DHT22;10211;49.476;11.010;2023-10-08T04:55:58;15.40;99.90
16999;DHT22;10211;49.476;11.010;2023-10-08T04:58:28;15.40;99.90
16999;DHT22;10211;49.476;11.010;2023-10-08T05:01:00;15.40;99.90
16999;DHT22;10211;49.476;11.010;2023-10-08T05:03:43;15.50;99.90
16999;DHT22;10211;49.476;11.010;2023-10-08T05:06:22;16.20;99.90
16999;DHT22;10211;49.476;11.010;2023-10-08T05:09:06;15.50;99.90
16999;DHT22;10211;49.476;11.010;2023-10-08T05:11:37;15.50;99.90
16999;DHT22;10211;49.476;11.010;2023-10-08T05:14:11;15.60;99.90
16999;DHT22;10211;49.476;11.010;2023-10-08T05:16:56;15.60;99.90
16999;DHT22;10211;49.476;11.010;2023-10-08T05:19:26;15.60;99.90
16999;DHT22;10211;49.476;11.010;2023-10-08T05:22:14;15.60;99.90
16999;DHT22;10211;49.476;11.010;2023-10-08T05:24:44;15.50;99.90
16999;DHT22;10211;49.476;11.010;2023-10-08T05:27:32;15.50;99.90
16999;DHT22;10211;49.476;11.010;2023-10-08T05:30:23;15.50;99.90
16999;DHT22;10211;49.476;11.010;2023-10-08T05:33:06;15.50;99.90
16999;DHT22;10211;49.476;11.010;2023-10-08T05:35:35;15.50;99.90
16999;DHT22;10211;49.476;11.010;2023-10-08T05:38:28;15.60;99.90
16999;DHT22;10211;49.476;11.010;2023-10-08T05:41:13;15.60;99.90
16999;DHT22;10211;49.476;11.010;2023-10-08T05:43:53;15.60;99.90
16999;DHT22;10211;49.476;11.010;2023-10-08T05:46:38;15.60;99.90
16999;DHT22;10211;49.476;11.010;2023-10-08T05:49:33;15.60;99.90
16999;DHT22;10211;49.476;11.010;2023-10-08T05:52:04;15.60;99.90
16999;DHT22;10211;49.476;11.010;2023-10-08T05:54:48;15.70;99.90
16999;DHT22;10211;49.476;11.010;2023-10-08T05:57:40;15.70;99.90
16999;DHT22;10211;49.476;11.010;2023-10-08T06:00:12;15.70;99.90
16999;DHT22;10211;49.476;11.010;2023-10-08T06:02:57;15.70;99.90
16999;DHT22;10211;49.476;11.010;2023-10-08T06:05:59;15.80;99.90
16999;DHT22;10211;49.476;11.010;2023-10-08T06:08:43;15.70;99.90
16999;DHT22;10211;49.476;11.010;2023-10-08T06:11:33;15.70;99.90
16999;DHT22;10211;49.476;11.010;2023-10-08T06:14:06;15.80;99.90
16999;DHT22;10211;49.476;11.010;2023-10-08T06:16:42;15.80;99.90
16999;DHT22;10211;49.476;11.010;2023-10-08T06:19:10;15.80;99.90
16999;DHT22;10211;49.476;11.010;2023-10-08T06:21:41;15.80;99.90
16999;DHT22;10211;49.476;11.010;2023-10-08T06:24:07;15.80;99.90
16999;DHT22;10211;49.476;11.010;2023-10-08T06:26:42;15.80;99.90
16999;DHT22;10211;49.476;11.010;2023-10-08T06:29:12;15.80;99.90
16999;DHT22;10211;49.476;11.010;2023-10-08T06:31:52;15.80;99.90
16999;DHT22;10211;49.476;11.010;2023-10-08T06:34:21;15.90;99.90
16999;DHT22;10211;49.476;11.010;2023-10-08T06:36:50;15.90;99.90
16999;DHT22;10211;49.476;11.010;2023-10-08T06:39:20;16.50;99.90
16999;DHT22;10211;49.476;11.010;2023-10-08T06:41:54;15.90;99.90
16999;DHT22;10211;49.476;11.010;2023-10-08T06:44:24;15.90;99.90
16999;DHT22;10211;49.476;11.010;2023-10-08T06:46:52;16.00;99.90
16999;DHT22;10211;49.476;11.010;2023-10-08T06:49:21;16.00;99.90
16999;DHT22;10211;49.476;11.010;2023-10-08T06:51:51;16.00;99.90
16999;DHT22;10211;49.476;11.010;2023-10-08T06:54:19;16.20;99.90
16999;DHT22;10211;49.476;11.010;2023-10-08T06:56:48;16.10;99.90
16999;DHT22;10211;49.476;11.010;2023-10-08T06:59:17;16.10;99.90
16999;DHT22;10211;49.476;11.010;2023-10-08T07:01:44;16.20;99.90
16999;DHT22;10211;49.476;11.010;2023-10-08T07:04:12;16.20;99.90
16999;DHT22;10211;49.476;11.010;2023-10-08T07:06:40;16.20;99.90
16999;DHT22;10211;49.476;11.010;2023-10-08T07:09:13;16.30;99.90
16999;DHT22;10211;49.476;11.010;2023-10-08T07:11:55;16.30;99.90
16999;DHT22;10211;49.476;11.010;2023-10-08T07:14:22;16.40;99.90
16999;DHT22;10211;49.476;11.010;2023-10-08T07:16:52;16.50;99.90
16999;DHT22;10211;49.476;11.010;2023-10-08T07:19:20;16.70;99.90
16999;DHT22;10211;49.476;11.010;2023-10-08T07:21:49;16.70;99.90
16999;DHT22;10211;49.476;11.010;2023-10-08T07:24:21;16.80;99.90
16999;DHT22;10211;49.476;11.010;2023-10-08T07:26:48;16.90;99.90
16999;DHT22;10211;49.476;11.010;2023-10-08T07:29:20;17.10;99.90
16999;DHT22;10211;49.476;11.010;2023-10-08T07:31:48;17.20;99.90
16999;DHT22;10211;49.476;11.010;2023-10-08T07:34:18;17.30;99.90
16999;DHT22;10211;49.476;11.010;2023-10-08T07:36:52;17.40;99.90
16999;DHT22;10211;49.476;11.010;2023-10-08T07:39:22;17.40;99.90
16999;DHT22;10211;49.476;11.010;2023-10-08T07:41:52;17.50;99.90
16999;DHT22;10211;49.476;11.010;2023-10-08T07:44:20;17.40;99.90
16999;DHT22;10211;49.476;11.010;2023-10-08T07:46:48;17.40;99.90
16999;DHT22;10211;49.476;11.010;2023-10-08T07:49:15;17.40;99.90
16999;DHT22;10211;49.476;11.010;2023-10-08T07:51:42;17.50;99.90
16999;DHT22;10211;49.476;11.010;2023-10-08T07:54:17;17.60;99.90
16999;DHT22;10211;49.476;11.010;2023-10-08T07:56:46;17.90;99.90
16999;DHT22;10211;49.476;11.010;2023-10-08T07:59:14;17.90;99.90
16999;DHT22;10211;49.476;11.010;2023-10-08T08:01:44;17.90;99.90
16999;DHT22;10211;49.476;11.010;2023-10-08T08:04:11;17.90;99.90
16999;DHT22;10211;49.476;11.010;2023-10-08T08:06:47;18.10;99.90
16999;DHT22;10211;49.476;11.010;2023-10-08T08:09:16;18.30;99.90
16999;DHT22;10211;49.476;11.010;2023-10-08T08:11:48;18.40;99.90
16999;DHT22;10211;49.476;11.010;2023-10-08T08:14:15;18.60;99.90
16999;DHT22;10211;49.476;11.010;2023-10-08T08:16:44;18.70;99.90
16999;DHT22;10211;49.476;11.010;2023-10-08T08:19:14;18.80;99.90
16999;DHT22;10211;49.476;11.010;2023-10-08T08:21:42;19.10;99.90
16999;DHT22;10211;49.476;11.010;2023-10-08T08:24:11;19.90;99.90
16999;DHT22;10211;49.476;11.010;2023-10-08T08:26:39;20.40;99.90
16999;DHT22;10211;49.476;11.010;2023-10-08T08:29:11;20.70;99.90
16999;DHT22;10211;49.476;11.010;2023-10-08T08:31:40;21.00;99.90
16999;DHT22;10211;49.476;11.010;2023-10-08T08:34:12;21.10;99.90
16999;DHT22;10211;49.476;11.010;2023-10-08T08:36:45;21.10;99.90
16999;DHT22;10211;49.476;11.010;2023-10-08T08:39:14;21.10;99.90
16999;DHT22;10211;49.476;11.010;2023-10-08T08:41:58;21.10;99.90
16999;DHT22;10211;49.476;11.010;2023-10-08T08:44:29;21.00;99.90
16999;DHT22;10211;49.476;11.010;2023-10-08T08:46:58;21.00;99.90
16999;DHT22;10211;49.476;11.010;2023-10-08T08:49:30;20.80;99.90
16999;DHT22;10211;49.476;11.010;2023-10-08T08:51:59;20.50;99.90
16999;DHT22;10211;49.476;11.010;2023-10-08T08:54:27;20.20;99.90
16999;DHT22;10211;49.476;11.010;2023-10-08T08:56:56;19.70;99.90
16999;DHT22;10211;49.476;11.010;2023-10-08T08:59:27;19.90;99.90
16999;DHT22;10211;49.476;11.010;2023-10-08T09:01:57;19.30;99.90
16999;DHT22;10211;49.476;11.010;2023-10-08T09:04:28;19.10;99.90
16999;DHT22;10211;49.476;11.010;2023-10-08T09:06:56;19.00;99.90
16999;DHT22;10211;49.476;11.010;2023-10-08T09:09:31;19.00;99.90
16999;DHT22;10211;49.476;11.010;2023-10-08T09:11:58;18.80;99.90
16999;DHT22;10211;49.476;11.010;2023-10-08T09:14:28;18.80;99.90
16999;DHT22;10211;49.476;11.010;2023-10-08T09:16:57;18.70;99.90
16999;DHT22;10211;49.476;11.010;2023-10-08T09:19:26;18.70;99.90
16999;DHT22;10211;49.476;11.010;2023-10-08T09:22:00;18.60;99.90
16999;DHT22;10211;49.476;11.010;2023-10-08T09:24:29;18.50;99.90
16999;DHT22;10211;49.476;11.010;2023-10-08T09:26:56;18.40;99.90
16999;DHT22;10211;49.476;11.010;2023-10-08T09:29:23;18.40;99.90
16999;DHT22;10211;49.476;11.010;2023-10-08T09:31:56;18.30;99.90
16999;DHT22;10211;49.476;11.010;2023-10-08T09:34:26;18.30;99.90
16999;DHT22;10211;49.476;11.010;2023-10-08T09:36:56;18.30;99.90
16999;DHT22;10211;49.476;11.010;2023-10-08T09:39:26;18.40;99.90
16999;DHT22;10211;49.476;11.010;2023-10-08T09:41:54;18.60;99.90
16999;DHT22;10211;49.476;11.010;2023-10-08T09:44:32;19.00;99.90
16999;DHT22;10211;49.476;11.010;2023-10-08T09:47:03;19.30;99.90
16999;DHT22;10211;49.476;11.010;2023-10-08T09:49:31;19.70;99.90
16999;DHT22;10211;49.476;11.010;2023-10-08T09:52:02;20.00;99.90
16999;DHT22;10211;49.476;11.010;2023-10-08T09:54:35;20.00;99.90
16999;DHT22;10211;49.476;11.010;2023-10-08T09:57:06;20.10;99.90
16999;DHT22;10211;49.476;11.010;2023-10-08T09:59:34;20.00;99.90
16999;DHT22;10211;49.476;11.010;2023-10-08T10:02:05;20.00;99.90
16999;DHT22;10211;49.476;11.010;2023-10-08T10:04:35;20.00;99.90
16999;DHT22;10211;49.476;11.010;2023-10-08T10:07:09;19.80;99.90
16999;DHT22;10211;49.476;11.010;2023-10-08T10:09:38;19.80;99.90
16999;DHT22;10211;49.476;11.010;2023-10-08T10:12:06;19.80;99.90
16999;DHT22;10211;49.476;11.010;2023-10-08T10:14:41;19.90;99.90
16999;DHT22;10211;49.476;11.010;2023-10-08T10:17:13;19.80;99.90
16999;DHT22;10211;49.476;11.010;2023-10-08T10:19:40;19.80;99.90
16999;DHT22;10211;49.476;11.010;2023-10-08T10:22:13;19.60;99.90
16999;DHT22;10211;49.476;11.010;2023-10-08T10:24:41;19.60;99.90
16999;DHT22;10211;49.476;11.010;2023-10-08T10:27:11;19.70;99.90
16999;DHT22;10211;49.476;11.010;2023-10-08T10:29:40;19.60;99.90
16999;DHT22;10211;49.476;11.010;2023-10-08T10:32:10;19.70;99.90
16999;DHT22;10211;49.476;11.010;2023-10-08T10:34:39;19.60;99.90
16999;DHT22;10211;49.476;11.010;2023-10-08T10:37:06;19.70;99.90
16999;DHT22;10211;49.476;11.010;2023-10-08T10:39:50;19.60;99.90
16999;DHT22;10211;49.476;11.010;2023-10-08T10:42:19;19.50;99.90
16999;DHT22;10211;49.476;11.010;2023-10-08T10:44:48;19.40;99.90
16999;DHT22;10211;49.476;11.010;2023-10-08T10:47:17;19.30;99.90
16999;DHT22;10211;49.476;11.010;2023-10-08T10:49:55;19.30;99.90
16999;DHT22;10211;49.476;11.010;2023-10-08T10:52:41;19.30;99.90
16999;DHT22;10211;49.476;11.010;2023-10-08T10:55:19;19.20;99.90
16999;DHT22;10211;49.476;11.010;2023-10-08T10:57:49;19.10;99.90
16999;DHT22;10211;49.476;11.010;2023-10-08T11:00:23;19.00;99.90
16999;DHT22;10211;49.476;11.010;2023-10-08T11:03:08;18.90;99.90
16999;DHT22;10211;49.476;11.010;2023-10-08T11:05:51;18.90;99.90
16999;DHT22;10211;49.476;11.010;2023-10-08T11:08:21;18.70;99.90
16999;DHT22;10211;49.476;11.010;2023-10-08T11:10:52;18.70;99.90
16999;DHT22;10211;49.476;11.010;2023-10-08T11:13:24;18.70;99.90
16999;DHT22;10211;49.476;11.010;2023-10-08T11:15:54;18.80;99.90
16999;DHT22;10211;49.476;11.010;2023-10-08T11:18:26;18.90;99.90
16999;DHT22;10211;49.476;11.010;2023-10-08T11:21:05;19.00;99.90
16999;DHT22;10211;49.476;11.010;2023-10-08T11:23:42;19.00;99.90
16999;DHT22;10211;49.476;11.010;2023-10-08T11:26:09;18.90;99.90
16999;DHT22;10211;49.476;11.010;2023-10-08T11:28:38;19.20;99.90
16999;DHT22;10211;49.476;11.010;2023-10-08T11:31:10;19.30;99.90
16999;DHT22;10211;49.476;11.010;2023-10-08T11:33:39;19.40;99.90
16999;DHT22;10211;49.476;11.010;2023-10-08T11:36:07;19.40;99.90
16999;DHT22;10211;49.476;11.010;2023-10-08T11:38:44;19.50;99.90
16999;DHT22;10211;49.476;11.010;2023-10-08T11:41:14;19.50;99.90
16999;DHT22;10211;49.476;11.010;2023-10-08T11:43:47;19.60;99.90
16999;DHT22;10211;49.476;11.010;2023-10-08T11:46:20;19.80;99.90
16999;DHT22;10211;49.476;11.010;2023-10-08T11:48:48;19.90;99.90
16999;DHT22;10211;49.476;11.010;2023-10-08T11:51:16;20.00;99.90
16999;DHT22;10211;49.476;11.010;2023-10-08T11:53:43;20.30;99.90
16999;DHT22;10211;49.476;11.010;2023-10-08T11:56:11;20.40;99.90
16999;DHT22;10211;49.476;11.010;2023-10-08T11:58:39;20.20;99.90
16999;DHT22;10211;49.476;11.010;2023-10-08T12:01:10;20.00;99.90
16999;DHT22;10211;49.476;11.010;2023-10-08T12:03:41;20.00;99.90
16999;DHT22;10211;49.476;11.010;2023-10-08T12:06:10;20.10;99.90
16999;DHT22;10211;49.476;11.010;2023-10-08T12:08:41;20.00;99.90
16999;DHT22;10211;49.476;11.010;2023-10-08T12:11:11;20.00;99.90
16999;DHT22;10211;49.476;11.010;2023-10-08T12:13:38;19.90;99.90
16999;DHT22;10211;49.476;11.010;2023-10-08T12:16:10;20.20;99.90
16999;DHT22;10211;49.476;11.010;2023-10-08T12:18:44;19.70;99.90
16999;DHT22;10211;49.476;11.010;2023-10-08T12:21:15;19.70;99.90
16999;DHT22;10211;49.476;11.010;2023-10-08T12:23:43;19.60;99.90
16999;DHT22;10211;49.476;11.010;2023-10-08T12:26:14;19.70;99.90
16999;DHT22;10211;49.476;11.010;2023-10-08T12:28:44;19.70;99.90
16999;DHT22;10211;49.476;11.010;2023-10-08T12:31:12;19.70;99.90
16999;DHT22;10211;49.476;11.010;2023-10-08T12:33:41;19.80;99.90
16999;DHT22;10211;49.476;11.010;2023-10-08T12:36:09;19.80;99.90
16999;DHT22;10211;49.476;11.010;2023-10-08T12:38:41;19.80;99.90
16999;DHT22;10211;49.476;11.010;2023-10-08T12:41:08;19.60;99.90
16999;DHT22;10211;49.476;11.010;2023-10-08T12:43:46;19.50;99.90
16999;DHT22;10211;49.476;11.010;2023-10-08T12:46:18;19.60;99.90
16999;DHT22;10211;49.476;11.010;2023-10-08T12:48:50;19.40;99.90
16999;DHT22;10211;49.476;11.010;2023-10-08T12:51:18;19.40;99.90
16999;DHT22;10211;49.476;11.010;2023-10-08T12:53:50;19.30;99.90
16999;DHT22;10211;49.476;11.010;2023-10-08T12:56:24;19.40;99.90
16999;DHT22;10211;49.476;11.010;2023-10-08T12:58:57;19.40;99.90
16999;DHT22;10211;49.476;11.010;2023-10-08T13:01:24;19.20;99.90
16999;DHT22;10211;49.476;11.010;2023-10-08T13:03:54;19.30;99.90
16999;DHT22;10211;49.476;11.010;2023-10-08T13:06:26;19.40;99.90
16999;DHT22;10211;49.476;11.010;2023-10-08T13:08:56;19.40;99.90
16999;DHT22;10211;49.476;11.010;2023-10-08T13:11:25;19.50;99.90
16999;DHT22;10211;49.476;11.010;2023-10-08T13:13:52;19.50;99.90
16999;DHT22;10211;49.476;11.010;2023-10-08T13:16:22;19.50;99.90
16999;DHT22;10211;49.476;11.010;2023-10-08T13:18:49;19.50;99.90
16999;DHT22;10211;49.476;11.010;2023-10-08T13:21:16;19.60;99.90
16999;DHT22;10211;49.476;11.010;2023-10-08T13:23:44;19.30;99.90
16999;DHT22;10211;49.476;11.010;2023-10-08T13:26:13;19.20;99.90
16999;DHT22;10211;49.476;11.010;2023-10-08T13:28:43;19.10;99.90
16999;DHT22;10211;49.476;11.010;2023-10-08T13:31:11;19.10;99.90
16999;DHT22;10211;49.476;11.010;2023-10-08T13:33:38;19.20;99.90
16999;DHT22;10211;49.476;11.010;2023-10-08T13:36:06;19.20;99.90
16999;DHT22;10211;49.476;11.010;2023-10-08T13:38:35;19.20;99.90
16999;DHT22;10211;49.476;11.010;2023-10-08T13:41:02;19.10;99.90
16999;DHT22;10211;49.476;11.010;2023-10-08T13:43:31;19.10;99.90
16999;DHT22;10211;49.476;11.010;2023-10-08T13:46:02;19.10;99.90
16999;DHT22;10211;49.476;11.010;2023-10-08T13:48:30;19.30;99.90
16999;DHT22;10211;49.476;11.010;2023-10-08T13:50:59;19.30;99.90
16999;DHT22;10211;49.476;11.010;2023-10-08T13:53:26;19.30;99.90
16999;DHT22;10211;49.476;11.010;2023-10-08T13:55:56;19.40;99.90
16999;DHT22;10211;49.476;11.010;2023-10-08T13:58:23;19.50;99.90
16999;DHT22;10211;49.476;11.010;2023-10-08T14:00:52;19.60;99.90
16999;DHT22;10211;49.476;11.010;2023-10-08T14:03:19;19.80;99.90
16999;DHT22;10211;49.476;11.010;2023-10-08T14:05:47;19.90;99.90
16999;DHT22;10211;49.476;11.010;2023-10-08T14:08:16;20.00;99.90
16999;DHT22;10211;49.476;11.010;2023-10-08T14:10:43;20.00;99.90
16999;DHT22;10211;49.476;11.010;2023-10-08T14:13:10;20.00;99.90
16999;DHT22;10211;49.476;11.010;2023-10-08T14:15:37;19.90;99.90
16999;DHT22;10211;49.476;11.010;2023-10-08T14:18:11;19.80;99.90
16999;DHT22;10211;49.476;11.010;2023-10-08T14:20:43;19.80;99.90
16999;DHT22;10211;49.476;11.010;2023-10-08T14:23:12;19.80;99.90
16999;DHT22;10211;49.476;11.010;2023-10-08T14:25:42;19.90;99.90
16999;DHT22;10211;49.476;11.010;2023-10-08T14:28:10;19.90;99.90
16999;DHT22;10211;49.476;11.010;2023-10-08T14:30:48;19.90;99.90
16999;DHT22;10211;49.476;11.010;2023-10-08T14:33:20;20.10;99.90
16999;DHT22;10211;49.476;11.010;2023-10-08T14:35:52;20.00;99.90
16999;DHT22;10211;49.476;11.010;2023-10-08T14:38:36;20.00;99.90
16999;DHT22;10211;49.476;11.010;2023-10-08T14:41:20;19.90;99.90
16999;DHT22;10211;49.476;11.010;2023-10-08T14:44:05;19.70;99.90
16999;DHT22;10211;49.476;11.010;2023-10-08T14:46:32;19.50;99.90
16999;DHT22;10211;49.476;11.010;2023-10-08T14:49:03;19.40;99.90
16999;DHT22;10211;49.476;11.010;2023-10-08T14:51:36;19.30;99.90
16999;DHT22;10211;49.476;11.010;2023-10-08T14:54:06;19.20;99.90
16999;DHT22;10211;49.476;11.010;2023-10-08T14:59:02;19.30;99.90
16999;DHT22;10211;49.476;11.010;2023-10-08T15:01:29;19.30;99.90
16999;DHT22;10211;49.476;11.010;2023-10-08T15:03:59;19.40;99.90
16999;DHT22;10211;49.476;11.010;2023-10-08T15:06:30;19.40;99.90
16999;DHT22;10211;49.476;11.010;2023-10-08T15:08:57;19.50;99.90
16999;DHT22;10211;49.476;11.010;2023-10-08T15:11:24;19.50;99.90
16999;DHT22;10211;49.476;11.010;2023-10-08T15:13:52;19.40;99.90
16999;DHT22;10211;49.476;11.010;2023-10-08T15:16:19;19.40;99.90
16999;DHT22;10211;49.476;11.010;2023-10-08T15:18:48;19.40;99.90
16999;DHT22;10211;49.476;11.010;2023-10-08T15:21:14;19.30;99.90
16999;DHT22;10211;49.476;11.010;2023-10-08T15:23:44;19.30;99.90
16999;DHT22;10211;49.476;11.010;2023-10-08T15:26:11;19.10;99.90
16999;DHT22;10211;49.476;11.010;2023-10-08T15:28:38;19.00;99.90
16999;DHT22;10211;49.476;11.010;2023-10-08T15:31:05;19.00;99.90
16999;DHT22;10211;49.476;11.010;2023-10-08T15:33:32;18.90;99.90
16999;DHT22;10211;49.476;11.010;2023-10-08T15:35:59;18.80;99.90
16999;DHT22;10211;49.476;11.010;2023-10-08T15:38:26;18.80;99.90
16999;DHT22;10211;49.476;11.010;2023-10-08T15:40:54;18.80;99.90
16999;DHT22;10211;49.476;11.010;2023-10-08T15:43:21;18.60;99.90